sensor_id;sensor_type;location;lat;lon;timestamp;pressure;altitude;pressure_sealevel;temperature;humidity
43115;BME280;28727;50.068;14.452;2022-09-09T00:02:19;99029.47;;;15.97;75.68
43115;BME280;28727;50.068;14.452;2022-09-09T00:04:59;99028.06;;;15.94;75.69
43115;BME280;28727;50.068;14.452;2022-09-09T00:13:15;99033.22;;;15.83;76.15
43115;BME280;28727;50.068;14.452;2022-09-09T00:16:09;99036.09;;;15.81;76.52
43115;BME280;28727;50.068;14.452;2022-09-09T00:21:33;99035.47;;;15.79;76.37
43115;BME280;28727;50.068;14.452;2022-09-09T00:24:13;99040.81;;;15.79;76.54
43115;BME280;28727;50.068;14.452;2022-09-09T00:26:57;99042.06;;;15.77;76.78
43115;BME280;28727;50.068;14.452;2022-09-09T00:29:42;99037.75;;;15.76;76.88
43115;BME280;28727;50.068;14.452;2022-09-09T00:32:17;99041.66;;;15.73;76.91
43115;BME280;28727;50.068;14.452;2022-09-09T00:34:56;99035.72;;;15.71;77.06
43115;BME280;28727;50.068;14.452;2022-09-09T00:37:30;99036.94;;;15.69;77.07
43115;BME280;28727;50.068;14.452;2022-09-09T00:40:23;99029.97;;;15.68;77.34
43115;BME280;28727;50.068;14.452;2022-09-09T00:49:43;99041.47;;;15.62;77.37
43115;BME280;28727;50.068;14.452;2022-09-09T00:55:08;99039.03;;;15.60;77.11
43115;BME280;28727;50.068;14.452;2022-09-09T00:57:43;99044.75;;;15.57;76.99
43115;BME280;28727;50.068;14.452;2022-09-09T01:00:19;99039.88;;;15.54;77.20
43115;BME280;28727;50.068;14.452;2022-09-09T01:03:13;99045.41;;;15.52;77.55
43115;BME280;28727;50.068;14.452;2022-09-09T01:11:12;99055.00;;;15.47;77.38
43115;BME280;28727;50.068;14.452;2022-09-09T01:13:54;99058.47;;;15.47;77.18
43115;BME280;28727;50.068;14.452;2022-09-09T01:16:32;99050.69;;;15.46;77.53
43115;BME280;28727;50.068;14.452;2022-09-09T01:19:07;99052.53;;;15.45;77.69
43115;BME280;28727;50.068;14.452;2022-09-09T01:24:27;99054.19;;;15.40;77.74
43115;BME280;28727;50.068;14.452;2022-09-09T01:27:18;99049.47;;;15.42;77.66
43115;BME280;28727;50.068;14.452;2022-09-09T01:29:51;99043.53;;;15.40;77.68
43115;BME280;28727;50.068;14.452;2022-09-09T01:32:46;99045.56;;;15.38;77.63
43115;BME280;28727;50.068;14.452;2022-09-09T01:35:55;99049.69;;;15.40;77.53
43115;BME280;28727;50.068;14.452;2022-09-09T01:38:34;99052.53;;;15.39;77.27
43115;BME280;28727;50.068;14.452;2022-09-09T01:41:07;99051.72;;;15.38;77.47
43115;BME280;28727;50.068;14.452;2022-09-09T01:43:48;99044.78;;;15.37;77.49
43115;BME280;28727;50.068;14.452;2022-09-09T01:46:22;99043.97;;;15.37;77.70
43115;BME280;28727;50.068;14.452;2022-09-09T01:48:54;99040.47;;;15.36;77.51
43115;BME280;28727;50.068;14.452;2022-09-09T01:51:28;99048.28;;;15.31;77.54
43115;BME280;28727;50.068;14.452;2022-09-09T01:54:02;99048.66;;;15.28;77.89
43115;BME280;28727;50.068;14.452;2022-09-09T02:02:34;99055.00;;;15.21;78.30
43115;BME280;28727;50.068;14.452;2022-09-09T02:08:55;99033.53;;;15.22;78.14
43115;BME280;28727;50.068;14.452;2022-09-09T02:11:18;99035.78;;;15.19;78.53
43115;BME280;28727;50.068;14.452;2022-09-09T02:14:06;99040.88;;;15.20;78.29
43115;BME280;28727;50.068;14.452;2022-09-09T02:17:01;99047.25;;;15.19;78.04
43115;BME280;28727;50.068;14.452;2022-09-09T02:19:56;99045.81;;;15.16;78.45
43115;BME280;28727;50.068;14.452;2022-09-09T02:22:43;99045.19;;;15.14;78.40
43115;BME280;28727;50.068;14.452;2022-09-09T02:25:21;99046.44;;;15.12;78.47
43115;BME280;28727;50.068;14.452;2022-09-09T02:27:56;99035.16;;;15.10;78.64
43115;BME280;28727;50.068;14.452;2022-09-09T02:30:32;99047.66;;;15.09;78.78
43115;BME280;28727;50.068;14.452;2022-09-09T02:33:07;99044.16;;;15.09;78.84
43115;BME280;28727;50.068;14.452;2022-09-09T02:35:47;99041.50;;;15.09;78.53
43115;BME280;28727;50.068;14.452;2022-09-09T02:38:26;99055.25;;;15.06;78.70
43115;BME280;28727;50.068;14.452;2022-09-09T02:41:06;99053.59;;;15.05;78.89
43115;BME280;28727;50.068;14.452;2022-09-09T02:43:39;99050.13;;;15.04;78.82
43115;BME280;28727;50.068;14.452;2022-09-09T02:46:29;99048.69;;;15.02;78.67
43115;BME280;28727;50.068;14.452;2022-09-09T02:49:17;99051.56;;;15.00;78.69
43115;BME280;28727;50.068;14.452;2022-09-09T02:51:57;99049.50;;;15.02;78.72
43115;BME280;28727;50.068;14.452;2022-09-09T02:54:35;99045.41;;;15.00;78.37
43115;BME280;28727;50.068;14.452;2022-09-09T02:57:17;99050.31;;;14.96;78.82
43115;BME280;28727;50.068;14.452;2022-09-09T02:59:52;99044.38;;;14.94;78.96
43115;BME280;28727;50.068;14.452;2022-09-09T03:02:24;99049.91;;;14.93;79.15
43115;BME280;28727;50.068;14.452;2022-09-09T03:05:02;99045.81;;;14.90;79.72
43115;BME280;28727;50.068;14.452;2022-09-09T03:07:33;99049.91;;;14.93;79.34
43115;BME280;28727;50.068;14.452;2022-09-09T03:10:06;99050.53;;;14.95;79.20
43115;BME280;28727;50.068;14.452;2022-09-09T03:12:40;99046.22;;;14.94;79.30
43115;BME280;28727;50.068;14.452;2022-09-09T03:15:12;99051.56;;;14.94;79.39
43115;BME280;28727;50.068;14.452;2022-09-09T03:17:44;99044.59;;;14.93;78.92
43115;BME280;28727;50.068;14.452;2022-09-09T03:20:16;99053.00;;;14.90;79.15
43115;BME280;28727;50.068;14.452;2022-09-09T03:22:47;99050.31;;;14.90;79.08
43115;BME280;28727;50.068;14.452;2022-09-09T03:25:19;99047.66;;;14.90;79.15
43115;BME280;28727;50.068;14.452;2022-09-09T03:27:52;99052.75;;;14.91;79.26
43115;BME280;28727;50.068;14.452;2022-09-09T03:30:27;99056.47;;;14.90;79.13
43115;BME280;28727;50.068;14.452;2022-09-09T03:33:00;99058.06;;;14.91;78.84
43115;BME280;28727;50.068;14.452;2022-09-09T03:35:36;99063.19;;;14.93;79.05
43115;BME280;28727;50.068;14.452;2022-09-09T03:38:07;99056.03;;;14.93;78.59
43115;BME280;28727;50.068;14.452;2022-09-09T03:40:52;99068.31;;;14.88;78.80
43115;BME280;28727;50.068;14.452;2022-09-09T03:43:28;99063.81;;;14.88;79.01
43115;BME280;28727;50.068;14.452;2022-09-09T03:46:01;99054.00;;;14.89;78.58
43115;BME280;28727;50.068;14.452;2022-09-09T03:48:34;99054.63;;;14.84;78.96
43115;BME280;28727;50.068;14.452;2022-09-09T03:51:09;99055.00;;;14.81;79.44
43115;BME280;28727;50.068;14.452;2022-09-09T03:53:41;99058.88;;;14.79;79.48
43115;BME280;28727;50.068;14.452;2022-09-09T03:56:14;99052.97;;;14.77;79.24
43115;BME280;28727;50.068;14.452;2022-09-09T03:58:46;99050.13;;;14.78;79.57
43115;BME280;28727;50.068;14.452;2022-09-09T04:01:18;99048.47;;;14.77;79.41
43115;BME280;28727;50.068;14.452;2022-09-09T04:03:50;99046.63;;;14.78;79.84
43115;BME280;28727;50.068;14.452;2022-09-09T04:06:24;99050.31;;;14.77;79.66
43115;BME280;28727;50.068;14.452;2022-09-09T04:08:57;99048.66;;;14.75;79.65
43115;BME280;28727;50.068;14.452;2022-09-09T04:11:30;99050.50;;;14.75;79.57
43115;BME280;28727;50.068;14.452;2022-09-09T04:14:03;99050.50;;;14.75;79.69
43115;BME280;28727;50.068;14.452;2022-09-09T04:16:37;99049.28;;;14.78;79.81
43115;BME280;28727;50.068;14.452;2022-09-09T04:19:10;99056.84;;;14.81;79.87
43115;BME280;28727;50.068;14.452;2022-09-09T04:21:45;99044.19;;;14.83;79.81
43115;BME280;28727;50.068;14.452;2022-09-09T04:24:17;99043.97;;;14.84;79.75
43115;BME280;28727;50.068;14.452;2022-09-09T04:26:48;99046.41;;;14.86;79.56
43115;BME280;28727;50.068;14.452;2022-09-09T04:29:20;99049.69;;;14.88;79.48
43115;BME280;28727;50.068;14.452;2022-09-09T04:31:52;99047.66;;;14.90;79.33
43115;BME280;28727;50.068;14.452;2022-09-09T04:34:25;99052.16;;;14.96;79.28
43115;BME280;28727;50.068;14.452;2022-09-09T04:36:58;99055.84;;;15.01;79.07
43115;BME280;28727;50.068;14.452;2022-09-09T04:39:32;99054.63;;;15.04;78.84
43115;BME280;28727;50.068;14.452;2022-09-09T04:42:05;99055.25;;;15.06;78.66
43115;BME280;28727;50.068;14.452;2022-09-09T04:44:36;99056.66;;;15.08;78.53
43115;BME280;28727;50.068;14.452;2022-09-09T04:47:09;99059.75;;;15.12;78.46
43115;BME280;28727;50.068;14.452;2022-09-09T04:49:40;99061.97;;;15.15;78.47
43115;BME280;28727;50.068;14.452;2022-09-09T04:52:12;99065.06;;;15.19;78.07
43115;BME280;28727;50.068;14.452;2022-09-09T04:54:44;99066.47;;;15.21;78.01
43115;BME280;28727;50.068;14.452;2022-09-09T04:57:16;99062.19;;;15.27;77.94
43115;BME280;28727;50.068;14.452;2022-09-09T04:59:50;99063.00;;;15.34;78.00
43115;BME280;28727;50.068;14.452;2022-09-09T05:02:22;99067.09;;;15.36;77.78
43115;BME280;28727;50.068;14.452;2022-09-09T05:04:54;99063.63;;;15.42;77.68
43115;BME280;28727;50.068;14.452;2022-09-09T05:07:27;99062.38;;;15.38;77.67
43115;BME280;28727;50.068;14.452;2022-09-09T05:10:00;99066.03;;;15.44;77.61
43115;BME280;28727;50.068;14.452;2022-09-09T05:12:32;99065.44;;;15.48;77.19
43115;BME280;28727;50.068;14.452;2022-09-09T05:15:04;99069.53;;;15.51;76.97
43115;BME280;28727;50.068;14.452;2022-09-09T05:17:36;99079.78;;;15.61;76.52
43115;BME280;28727;50.068;14.452;2022-09-09T05:20:08;99077.50;;;15.77;76.71
43115;BME280;28727;50.068;14.452;2022-09-09T05:22:44;99076.38;;;16.05;76.23
43115;BME280;28727;50.068;14.452;2022-09-09T05:25:15;99070.38;;;16.22;75.28
43115;BME280;28727;50.068;14.452;2022-09-09T05:27:47;99064.78;;;16.37;74.22
43115;BME280;28727;50.068;14.452;2022-09-09T05:30:19;99071.66;;;16.51;73.19
43115;BME280;28727;50.068;14.452;2022-09-09T05:32:51;99069.78;;;16.65;72.95
43115;BME280;28727;50.068;14.452;2022-09-09T05:35:23;99069.69;;;17.03;72.43
43115;BME280;28727;50.068;14.452;2022-09-09T05:37:59;99076.28;;;17.32;70.42
43115;BME280;28727;50.068;14.452;2022-09-09T05:40:32;99072.06;;;17.42;69.33
43115;BME280;28727;50.068;14.452;2022-09-09T05:43:04;99074.06;;;17.47;68.92
43115;BME280;28727;50.068;14.452;2022-09-09T05:45:35;99068.50;;;17.48;68.26
43115;BME280;28727;50.068;14.452;2022-09-09T05:48:07;99061.53;;;17.47;68.58
43115;BME280;28727;50.068;14.452;2022-09-09T05:50:39;99063.38;;;17.47;68.36
43115;BME280;28727;50.068;14.452;2022-09-09T05:53:10;99073.47;;;17.45;68.28
43115;BME280;28727;50.068;14.452;2022-09-09T05:55:42;99075.56;;;17.43;68.33
43115;BME280;28727;50.068;14.452;2022-09-09T05:58:15;99082.34;;;17.39;68.45
43115;BME280;28727;50.068;14.452;2022-09-09T06:00:48;99075.22;;;17.33;68.83
43115;BME280;28727;50.068;14.452;2022-09-09T06:03:20;99075.88;;;17.28;69.23
43115;BME280;28727;50.068;14.452;2022-09-09T06:06:00;99086.13;;;17.31;69.49
43115;BME280;28727;50.068;14.452;2022-09-09T06:08:40;99086.28;;;17.36;69.21
43115;BME280;28727;50.068;14.452;2022-09-09T06:11:15;99095.06;;;17.43;69.02
43115;BME280;28727;50.068;14.452;2022-09-09T06:13:47;99100.56;;;17.48;68.92
43115;BME280;28727;50.068;14.452;2022-09-09T06:16:21;99104.22;;;17.54;68.86
43115;BME280;28727;50.068;14.452;2022-09-09T06:18:56;99096.31;;;17.66;68.24
43115;BME280;28727;50.068;14.452;2022-09-09T06:21:34;99093.13;;;17.75;67.99
43115;BME280;28727;50.068;14.452;2022-09-09T06:24:10;99095.38;;;17.96;68.56
43115;BME280;28727;50.068;14.452;2022-09-09T06:26:45;99096.75;;;18.35;67.75
43115;BME280;28727;50.068;14.452;2022-09-09T06:29:22;99093.75;;;18.92;65.79
43115;BME280;28727;50.068;14.452;2022-09-09T06:31:56;99088.03;;;19.41;64.02
43115;BME280;28727;50.068;14.452;2022-09-09T06:34:30;99097.00;;;19.82;60.92
43115;BME280;28727;50.068;14.452;2022-09-09T06:37:03;99100.03;;;20.09;60.95
43115;BME280;28727;50.068;14.452;2022-09-09T06:39:41;99095.59;;;20.14;59.28
43115;BME280;28727;50.068;14.452;2022-09-09T06:42:13;99099.06;;;20.15;59.04
43115;BME280;28727;50.068;14.452;2022-09-09T06:45:00;99096.56;;;20.48;58.95
43115;BME280;28727;50.068;14.452;2022-09-09T06:47:48;99082.84;;;21.06;57.50
43115;BME280;28727;50.068;14.452;2022-09-09T06:50:20;99081.53;;;21.76;55.54
43115;BME280;28727;50.068;14.452;2022-09-09T06:52:53;99080.31;;;22.27;53.87
43115;BME280;28727;50.068;14.452;2022-09-09T06:55:25;99080.38;;;22.75;52.69
43115;BME280;28727;50.068;14.452;2022-09-09T06:57:57;99079.50;;;22.97;51.38
43115;BME280;28727;50.068;14.452;2022-09-09T07:00:30;99086.09;;;23.11;50.10
43115;BME280;28727;50.068;14.452;2022-09-09T07:03:02;99085.91;;;23.22;50.33
43115;BME280;28727;50.068;14.452;2022-09-09T07:05:36;99088.31;;;23.51;49.39
43115;BME280;28727;50.068;14.452;2022-09-09T07:08:08;99087.59;;;23.60;49.43
43115;BME280;28727;50.068;14.452;2022-09-09T07:10:40;99084.41;;;23.37;49.08
43115;BME280;28727;50.068;14.452;2022-09-09T07:13:11;99087.25;;;23.52;48.23
43115;BME280;28727;50.068;14.452;2022-09-09T07:15:43;99084.94;;;23.71;48.73
43115;BME280;28727;50.068;14.452;2022-09-09T07:18:15;99097.59;;;23.65;48.43
43115;BME280;28727;50.068;14.452;2022-09-09T07:20:53;99080.59;;;23.64;48.98
43115;BME280;28727;50.068;14.452;2022-09-09T07:23:26;99085.97;;;23.64;48.67
43115;BME280;28727;50.068;14.452;2022-09-09T07:25:59;99082.84;;;23.83;48.88
43115;BME280;28727;50.068;14.452;2022-09-09T07:28:31;99082.72;;;24.09;48.40
43115;BME280;28727;50.068;14.452;2022-09-09T07:31:04;99074.00;;;24.44;47.17
43115;BME280;28727;50.068;14.452;2022-09-09T07:33:36;99078.13;;;24.82;46.84
43115;BME280;28727;50.068;14.452;2022-09-09T07:36:25;99071.44;;;25.25;45.69
43115;BME280;28727;50.068;14.452;2022-09-09T07:39:10;99069.53;;;25.26;45.08
43115;BME280;28727;50.068;14.452;2022-09-09T07:41:47;99077.09;;;25.29;45.23
43115;BME280;28727;50.068;14.452;2022-09-09T07:44:23;99084.91;;;25.41;45.29
43115;BME280;28727;50.068;14.452;2022-09-09T07:47:03;99080.84;;;25.79;44.57
43115;BME280;28727;50.068;14.452;2022-09-09T07:49:48;99080.06;;;25.73;43.49
43115;BME280;28727;50.068;14.452;2022-09-09T07:52:25;99078.16;;;25.63;43.70
43115;BME280;28727;50.068;14.452;2022-09-09T07:55:03;99083.84;;;25.37;44.62
43115;BME280;28727;50.068;14.452;2022-09-09T07:57:36;99076.28;;;25.23;44.98
43115;BME280;28727;50.068;14.452;2022-09-09T08:00:09;99070.88;;;25.44;44.82
43115;BME280;28727;50.068;14.452;2022-09-09T08:02:48;99079.50;;;25.51;44.92
43115;BME280;28727;50.068;14.452;2022-09-09T08:05:20;99078.97;;;25.23;45.09
43115;BME280;28727;50.068;14.452;2022-09-09T08:07:52;99087.28;;;24.76;45.67
43115;BME280;28727;50.068;14.452;2022-09-09T08:10:25;99088.03;;;24.52;46.46
43115;BME280;28727;50.068;14.452;2022-09-09T08:12:58;99085.09;;;24.68;46.94
43115;BME280;28727;50.068;14.452;2022-09-09T08:15:48;99084.34;;;24.83;46.43
43115;BME280;28727;50.068;14.452;2022-09-09T08:18:23;99095.41;;;24.76;46.74
43115;BME280;28727;50.068;14.452;2022-09-09T08:20:55;99097.53;;;24.69;47.10
43115;BME280;28727;50.068;14.452;2022-09-09T08:23:26;99104.88;;;24.84;47.21
43115;BME280;28727;50.068;14.452;2022-09-09T08:26:06;99095.19;;;24.93;46.45
43115;BME280;28727;50.068;14.452;2022-09-09T08:28:38;99089.25;;;24.96;46.67
43115;BME280;28727;50.068;14.452;2022-09-09T08:31:17;99096.56;;;24.96;47.50
43115;BME280;28727;50.068;14.452;2022-09-09T08:33:50;99099.25;;;24.96;47.49
43115;BME280;28727;50.068;14.452;2022-09-09T08:36:27;99103.03;;;24.95;46.81
43115;BME280;28727;50.068;14.452;2022-09-09T08:38:59;99101.94;;;24.91;47.07
43115;BME280;28727;50.068;14.452;2022-09-09T08:50:23;99088.72;;;25.24;46.22
43115;BME280;28727;50.068;14.452;2022-09-09T08:53:16;99082.75;;;25.48;45.82
43115;BME280;28727;50.068;14.452;2022-09-09T08:55:51;99088.19;;;25.68;45.82
43115;BME280;28727;50.068;14.452;2022-09-09T08:58:32;99101.69;;;25.73;45.21
43115;BME280;28727;50.068;14.452;2022-09-09T09:01:39;99093.31;;;25.80;45.34
43115;BME280;28727;50.068;14.452;2022-09-09T09:04:32;99100.53;;;26.04;45.04
43115;BME280;28727;50.068;14.452;2022-09-09T09:07:28;99093.81;;;25.92;44.88
43115;BME280;28727;50.068;14.452;2022-09-09T09:10:14;99086.66;;;26.16;44.58
43115;BME280;28727;50.068;14.452;2022-09-09T09:18:49;99075.19;;;27.33;42.46
43115;BME280;28727;50.068;14.452;2022-09-09T09:21:34;99073.25;;;27.67;41.75
43115;BME280;28727;50.068;14.452;2022-09-09T09:24:21;99073.25;;;27.67;41.57
43115;BME280;28727;50.068;14.452;2022-09-09T09:26:56;99072.19;;;27.87;40.99
43115;BME280;28727;50.068;14.452;2022-09-09T09:29:29;99065.41;;;27.89;41.17
43115;BME280;28727;50.068;14.452;2022-09-09T09:32:02;99068.06;;;28.18;40.77
43115;BME280;28727;50.068;14.452;2022-09-09T09:34:34;99062.53;;;28.66;39.82
43115;BME280;28727;50.068;14.452;2022-09-09T09:37:16;99056.88;;;29.00;39.28
43115;BME280;28727;50.068;14.452;2022-09-09T09:39:51;99064.41;;;28.89;39.31
43115;BME280;28727;50.068;14.452;2022-09-09T09:48:08;99044.59;;;29.81;37.73
43115;BME280;28727;50.068;14.452;2022-09-09T09:50:51;99039.69;;;30.60;36.48
43115;BME280;28727;50.068;14.452;2022-09-09T09:53:28;99037.06;;;30.68;33.00
43115;BME280;28727;50.068;14.452;2022-09-09T09:56:04;99032.63;;;30.81;33.08
43115;BME280;28727;50.068;14.452;2022-09-09T10:01:31;99034.25;;;30.82;32.81
43115;BME280;28727;50.068;14.452;2022-09-09T10:06:47;99033.38;;;30.23;32.63
43115;BME280;28727;50.068;14.452;2022-09-09T10:09:25;99041.88;;;29.94;33.70
43115;BME280;28727;50.068;14.452;2022-09-09T10:20:40;99023.34;;;29.96;34.10
43115;BME280;28727;50.068;14.452;2022-09-09T10:23:42;99020.69;;;30.19;33.37
43115;BME280;28727;50.068;14.452;2022-09-09T10:35:08;99002.25;;;30.02;31.64
43115;BME280;28727;50.068;14.452;2022-09-09T10:40:41;99015.25;;;28.99;32.46
43115;BME280;28727;50.068;14.452;2022-09-09T10:46:23;98988.59;;;29.61;32.11
43115;BME280;28727;50.068;14.452;2022-09-09T10:51:52;99002.16;;;30.43;30.25
43115;BME280;28727;50.068;14.452;2022-09-09T10:57:13;98991.06;;;30.39;30.54
43115;BME280;28727;50.068;14.452;2022-09-09T10:59:50;98988.56;;;30.29;31.47
43115;BME280;28727;50.068;14.452;2022-09-09T11:02:32;98987.13;;;30.45;31.89
43115;BME280;28727;50.068;14.452;2022-09-09T11:05:23;98989.81;;;30.81;30.68
43115;BME280;28727;50.068;14.452;2022-09-09T11:08:03;98990.78;;;30.63;30.21
43115;BME280;28727;50.068;14.452;2022-09-09T11:10:41;98997.34;;;30.26;30.52
43115;BME280;28727;50.068;14.452;2022-09-09T11:16:21;98986.25;;;29.41;30.90
43115;BME280;28727;50.068;14.452;2022-09-09T11:19:03;98992.94;;;29.02;32.19
43115;BME280;28727;50.068;14.452;2022-09-09T11:21:57;98988.88;;;29.00;31.83
43115;BME280;28727;50.068;14.452;2022-09-09T11:24:40;98996.41;;;28.89;32.28
43115;BME280;28727;50.068;14.452;2022-09-09T11:27:33;98983.09;;;28.69;31.71
43115;BME280;28727;50.068;14.452;2022-09-09T11:30:27;98989.34;;;28.69;32.12
43115;BME280;28727;50.068;14.452;2022-09-09T11:36:43;98985.06;;;28.07;34.80
43115;BME280;28727;50.068;14.452;2022-09-09T11:39:43;99008.31;;;27.70;35.98
43115;BME280;28727;50.068;14.452;2022-09-09T11:42:21;98997.22;;;27.14;37.23
43115;BME280;28727;50.068;14.452;2022-09-09T11:44:53;99003.78;;;26.69;38.95
43115;BME280;28727;50.068;14.452;2022-09-09T11:47:28;99003.19;;;26.38;40.16
43115;BME280;28727;50.068;14.452;2022-09-09T11:50:28;99000.53;;;26.28;41.02
43115;BME280;28727;50.068;14.452;2022-09-09T11:55:45;98989.03;;;25.97;42.59
43115;BME280;28727;50.068;14.452;2022-09-09T11:58:17;98998.84;;;25.78;43.17
43115;BME280;28727;50.068;14.452;2022-09-09T12:00:50;99002.16;;;25.60;43.46
43115;BME280;28727;50.068;14.452;2022-09-09T12:03:47;99009.75;;;25.27;44.60
43115;BME280;28727;50.068;14.452;2022-09-09T12:06:28;99010.31;;;24.99;45.46
43115;BME280;28727;50.068;14.452;2022-09-09T12:09:11;99006.28;;;25.02;45.76
43115;BME280;28727;50.068;14.452;2022-09-09T12:11:46;99013.03;;;24.99;46.42
43115;BME280;28727;50.068;14.452;2022-09-09T12:19:47;99013.81;;;23.87;51.89
43115;BME280;28727;50.068;14.452;2022-09-09T12:25:16;99029.91;;;23.30;55.18
43115;BME280;28727;50.068;14.452;2022-09-09T12:28:08;99053.53;;;23.17;54.42
43115;BME280;28727;50.068;14.452;2022-09-09T12:33:44;99064.72;;;23.04;59.08
43115;BME280;28727;50.068;14.452;2022-09-09T12:36:20;99091.19;;;22.32;50.36
43115;BME280;28727;50.068;14.452;2022-09-09T12:38:53;99049.97;;;21.88;47.62
43115;BME280;28727;50.068;14.452;2022-09-09T12:41:27;99052.84;;;21.26;54.06
43115;BME280;28727;50.068;14.452;2022-09-09T12:44:09;99046.44;;;20.82;56.86
43115;BME280;28727;50.068;14.452;2022-09-09T12:46:43;99063.41;;;20.54;59.25
43115;BME280;28727;50.068;14.452;2022-09-09T12:49:26;99061.50;;;20.38;56.77
43115;BME280;28727;50.068;14.452;2022-09-09T12:51:59;99085.63;;;20.15;58.83
43115;BME280;28727;50.068;14.452;2022-09-09T12:54:35;99098.44;;;19.61;59.99
43115;BME280;28727;50.068;14.452;2022-09-09T12:57:11;99106.69;;;18.95;63.07
43115;BME280;28727;50.068;14.452;2022-09-09T12:59:44;99119.19;;;18.71;63.13
43115;BME280;28727;50.068;14.452;2022-09-09T13:02:25;99115.91;;;18.69;63.37
43115;BME280;28727;50.068;14.452;2022-09-09T13:05:14;99133.91;;;18.62;63.82
43115;BME280;28727;50.068;14.452;2022-09-09T13:07:47;99125.50;;;18.40;66.57
43115;BME280;28727;50.068;14.452;2022-09-09T13:10:27;99101.72;;;18.50;64.98
43115;BME280;28727;50.068;14.452;2022-09-09T13:13:19;99097.94;;;18.39;68.31
43115;BME280;28727;50.068;14.452;2022-09-09T13:16:02;99077.50;;;18.45;68.07
43115;BME280;28727;50.068;14.452;2022-09-09T13:18:39;99068.44;;;18.46;69.45
43115;BME280;28727;50.068;14.452;2022-09-09T13:21:11;99058.47;;;18.53;69.12
43115;BME280;28727;50.068;14.452;2022-09-09T13:23:49;99050.44;;;18.53;70.76
43115;BME280;28727;50.068;14.452;2022-09-09T13:28:54;99065.44;;;18.72;68.13
43115;BME280;28727;50.068;14.452;2022-09-09T13:31:30;99048.75;;;18.59;67.98
43115;BME280;28727;50.068;14.452;2022-09-09T13:34:32;99059.53;;;18.82;69.30
43115;BME280;28727;50.068;14.452;2022-09-09T13:37:06;99050.59;;;19.11;69.42
43115;BME280;28727;50.068;14.452;2022-09-09T13:39:51;99046.09;;;19.35;68.63
43115;BME280;28727;50.068;14.452;2022-09-09T13:42:29;99036.53;;;19.62;68.65
43115;BME280;28727;50.068;14.452;2022-09-09T13:45:03;99030.72;;;19.77;69.65
43115;BME280;28727;50.068;14.452;2022-09-09T13:47:36;99021.09;;;19.93;69.37
43115;BME280;28727;50.068;14.452;2022-09-09T13:50:27;99021.31;;;20.03;71.00
43115;BME280;28727;50.068;14.452;2022-09-09T13:53:01;99003.00;;;20.12;69.87
43115;BME280;28727;50.068;14.452;2022-09-09T13:55:36;99004.22;;;20.21;69.59
43115;BME280;28727;50.068;14.452;2022-09-09T13:58:15;99008.78;;;20.32;68.33
43115;BME280;28727;50.068;14.452;2022-09-09T14:00:48;99001.47;;;20.44;68.45
43115;BME280;28727;50.068;14.452;2022-09-09T14:03:21;98999.22;;;20.53;66.97
43115;BME280;28727;50.068;14.452;2022-09-09T14:05:53;99005.72;;;20.57;67.53
43115;BME280;28727;50.068;14.452;2022-09-09T14:08:26;98998.91;;;20.66;69.06
43115;BME280;28727;50.068;14.452;2022-09-09T14:10:58;99001.94;;;20.86;69.24
43115;BME280;28727;50.068;14.452;2022-09-09T14:13:30;98996.06;;;21.06;68.03
43115;BME280;28727;50.068;14.452;2022-09-09T14:16:02;99000.34;;;21.18;67.81
43115;BME280;28727;50.068;14.452;2022-09-09T14:18:34;98997.22;;;21.27;64.81
43115;BME280;28727;50.068;14.452;2022-09-09T14:21:06;98988.16;;;21.33;65.86
43115;BME280;28727;50.068;14.452;2022-09-09T14:23:38;98978.34;;;21.38;64.34
43115;BME280;28727;50.068;14.452;2022-09-09T14:26:09;98984.13;;;21.52;64.64
43115;BME280;28727;50.068;14.452;2022-09-09T14:28:41;98980.78;;;21.61;64.04
43115;BME280;28727;50.068;14.452;2022-09-09T14:31:25;98979.97;;;21.61;61.69
43115;BME280;28727;50.068;14.452;2022-09-09T14:33:57;98981.22;;;21.53;61.19
43115;BME280;28727;50.068;14.452;2022-09-09T14:36:30;98986.53;;;21.48;61.67
43115;BME280;28727;50.068;14.452;2022-09-09T14:39:01;98975.13;;;21.41;61.31
43115;BME280;28727;50.068;14.452;2022-09-09T14:41:33;98979.69;;;21.41;62.51
43115;BME280;28727;50.068;14.452;2022-09-09T14:44:05;98964.38;;;21.41;62.01
43115;BME280;28727;50.068;14.452;2022-09-09T14:46:37;98969.59;;;21.48;62.30
43115;BME280;28727;50.068;14.452;2022-09-09T14:49:08;98966.38;;;21.51;62.85
43115;BME280;28727;50.068;14.452;2022-09-09T14:51:41;98970.75;;;21.57;63.51
43115;BME280;28727;50.068;14.452;2022-09-09T14:54:13;98963.50;;;21.57;63.48
43115;BME280;28727;50.068;14.452;2022-09-09T14:56:46;98973.72;;;21.55;62.02
43115;BME280;28727;50.068;14.452;2022-09-09T14:59:21;98972.16;;;21.59;62.57
43115;BME280;28727;50.068;14.452;2022-09-09T15:01:53;98970.28;;;21.60;62.15
43115;BME280;28727;50.068;14.452;2022-09-09T15:04:25;98963.38;;;21.69;62.51
43115;BME280;28727;50.068;14.452;2022-09-09T15:06:59;98960.84;;;21.79;63.13
43115;BME280;28727;50.068;14.452;2022-09-09T15:09:31;98953.09;;;21.83;62.05
43115;BME280;28727;50.068;14.452;2022-09-09T15:12:03;98964.06;;;21.81;61.49
43115;BME280;28727;50.068;14.452;2022-09-09T15:14:35;98961.63;;;21.80;62.08
43115;BME280;28727;50.068;14.452;2022-09-09T15:17:07;98951.16;;;21.78;61.30
43115;BME280;28727;50.068;14.452;2022-09-09T15:19:39;98958.16;;;21.79;61.21
43115;BME280;28727;50.068;14.452;2022-09-09T15:22:10;98960.28;;;21.77;61.08
43115;BME280;28727;50.068;14.452;2022-09-09T15:24:42;98956.97;;;21.70;58.49
43115;BME280;28727;50.068;14.452;2022-09-09T15:27:14;98956.31;;;21.63;58.87
43115;BME280;28727;50.068;14.452;2022-09-09T15:29:46;98952.53;;;21.59;59.69
43115;BME280;28727;50.068;14.452;2022-09-09T15:32:21;98957.91;;;21.59;59.34
43115;BME280;28727;50.068;14.452;2022-09-09T15:34:52;98963.50;;;21.57;59.26